sensor_id;sensor_type;location;lat;lon;timestamp;temperature;humidity
5210;DHT22;2624;48.048;11.706;2023-07-16T00:02:44;26.50;93.10
5210;DHT22;2624;48.048;11.706;2023-07-16T00:07:47;26.50;93.10
5210;DHT22;2624;48.048;11.706;2023-07-16T00:12:49;26.50;93.20
5210;DHT22;2624;48.048;11.706;2023-07-16T00:17:50;26.50;93.30
5210;DHT22;2624;48.048;11.706;2023-07-16T00:22:54;26.40;93.40
5210;DHT22;2624;48.048;11.706;2023-07-16T00:27:57;26.40;93.50
5210;DHT22;2624;48.048;11.706;2023-07-16T00:32:59;26.30;93.60
5210;DHT22;2624;48.048;11.706;2023-07-16T00:38:02;26.30;93.80
5210;DHT22;2624;48.048;11.706;2023-07-16T00:43:04;26.30;93.90
5210;DHT22;2624;48.048;11.706;2023-07-16T00:48:06;26.00;94.40
5210;DHT22;2624;48.048;11.706;2023-07-16T00:53:10;26.10;94.40
5210;DHT22;2624;48.048;11.706;2023-07-16T00:58:12;26.10;94.30
5210;DHT22;2624;48.048;11.706;2023-07-16T01:03:14;26.00;94.80
5210;DHT22;2624;48.048;11.706;2023-07-16T01:08:21;26.00;94.80
5210;DHT22;2624;48.048;11.706;2023-07-16T01:13:28;26.00;94.80
5210;DHT22;2624;48.048;11.706;2023-07-16T01:18:30;25.90;95.30
5210;DHT22;2624;48.048;11.706;2023-07-16T01:23:59;25.60;96.20
5210;DHT22;2624;48.048;11.706;2023-07-16T01:29:14;25.50;96.60
5210;DHT22;2624;48.048;11.706;2023-07-16T01:34:19;25.40;96.80
5210;DHT22;2624;48.048;11.706;2023-07-16T01:39:21;25.30;97.00
5210;DHT22;2624;48.048;11.706;2023-07-16T01:44:25;25.40;96.90
5210;DHT22;2624;48.048;11.706;2023-07-16T01:49:26;25.10;97.20
5210;DHT22;2624;48.048;11.706;2023-07-16T01:54:28;25.10;97.90
5210;DHT22;2624;48.048;11.706;2023-07-16T01:59:31;24.90;98.50
5210;DHT22;2624;48.048;11.706;2023-07-16T02:04:33;25.00;98.70
5210;DHT22;2624;48.048;11.706;2023-07-16T02:09:35;25.10;97.70
5210;DHT22;2624;48.048;11.706;2023-07-16T02:14:38;25.10;97.70
5210;DHT22;2624;48.048;11.706;2023-07-16T02:19:40;24.90;98.10
5210;DHT22;2624;48.048;11.706;2023-07-16T02:24:42;25.00;98.10
5210;DHT22;2624;48.048;11.706;2023-07-16T02:29:45;24.70;98.80
5210;DHT22;2624;48.048;11.706;2023-07-16T02:34:46;24.70;99.10
5210;DHT22;2624;48.048;11.706;2023-07-16T02:39:48;24.60;99.30
5210;DHT22;2624;48.048;11.706;2023-07-16T02:44:51;24.70;99.00
5210;DHT22;2624;48.048;11.706;2023-07-16T02:49:53;24.70;99.00
5210;DHT22;2624;48.048;11.706;2023-07-16T02:54:55;24.60;99.00
5210;DHT22;2624;48.048;11.706;2023-07-16T02:59:58;24.70;99.60
5210;DHT22;2624;48.048;11.706;2023-07-16T03:05:00;24.60;99.00
5210;DHT22;2624;48.048;11.706;2023-07-16T03:10:02;24.40;99.50
5210;DHT22;2624;48.048;11.706;2023-07-16T03:15:07;24.70;99.90
5210;DHT22;2624;48.048;11.706;2023-07-16T03:20:09;24.40;99.80
5210;DHT22;2624;48.048;11.706;2023-07-16T03:25:11;24.20;99.90
5210;DHT22;2624;48.048;11.706;2023-07-16T03:30:15;24.30;99.90
5210;DHT22;2624;48.048;11.706;2023-07-16T03:35:17;24.50;99.00
5210;DHT22;2624;48.048;11.706;2023-07-16T03:40:23;24.70;99.20
5210;DHT22;2624;48.048;11.706;2023-07-16T03:45:27;24.60;98.80
5210;DHT22;2624;48.048;11.706;2023-07-16T03:50:28;24.70;98.70
5210;DHT22;2624;48.048;11.706;2023-07-16T03:55:30;24.60;98.70
5210;DHT22;2624;48.048;11.706;2023-07-16T04:00:33;24.60;98.70
5210;DHT22;2624;48.048;11.706;2023-07-16T04:05:35;24.60;99.20
5210;DHT22;2624;48.048;11.706;2023-07-16T04:10:37;24.50;99.40
5210;DHT22;2624;48.048;11.706;2023-07-16T04:15:40;24.50;99.30
5210;DHT22;2624;48.048;11.706;2023-07-16T04:20:42;24.50;99.40
5210;DHT22;2624;48.048;11.706;2023-07-16T04:25:44;24.50;99.60
5210;DHT22;2624;48.048;11.706;2023-07-16T04:30:47;24.40;99.90
5210;DHT22;2624;48.048;11.706;2023-07-16T04:35:49;24.00;99.90
5210;DHT22;2624;48.048;11.706;2023-07-16T04:40:50;24.10;99.90
5210;DHT22;2624;48.048;11.706;2023-07-16T04:45:54;24.10;99.90
5210;DHT22;2624;48.048;11.706;2023-07-16T04:50:55;22.70;99.90
5210;DHT22;2624;48.048;11.706;2023-07-16T04:55:57;21.60;99.90
5210;DHT22;2624;48.048;11.706;2023-07-16T05:01:00;21.50;99.90
5210;DHT22;2624;48.048;11.706;2023-07-16T05:06:02;21.50;99.90
5210;DHT22;2624;48.048;11.706;2023-07-16T05:11:04;21.50;99.90
5210;DHT22;2624;48.048;11.706;2023-07-16T05:16:07;21.60;99.90
5210;DHT22;2624;48.048;11.706;2023-07-16T05:21:09;21.50;99.90
5210;DHT22;2624;48.048;11.706;2023-07-16T05:26:11;21.30;99.90
5210;DHT22;2624;48.048;11.706;2023-07-16T05:31:14;20.30;99.90
5210;DHT22;2624;48.048;11.706;2023-07-16T05:36:16;20.40;99.90
5210;DHT22;2624;48.048;11.706;2023-07-16T05:41:18;20.70;99.90
5210;DHT22;2624;48.048;11.706;2023-07-16T05:46:21;20.70;99.90
5210;DHT22;2624;48.048;11.706;2023-07-16T05:51:22;20.80;99.90
5210;DHT22;2624;48.048;11.706;2023-07-16T05:56:24;20.70;99.90
5210;DHT22;2624;48.048;11.706;2023-07-16T06:01:28;20.40;99.90
5210;DHT22;2624;48.048;11.706;2023-07-16T06:06:31;20.30;99.90
5210;DHT22;2624;48.048;11.706;2023-07-16T06:11:33;20.50;99.90
5210;DHT22;2624;48.048;11.706;2023-07-16T06:16:36;20.70;99.90
5210;DHT22;2624;48.048;11.706;2023-07-16T06:21:38;20.80;99.90
5210;DHT22;2624;48.048;11.706;2023-07-16T06:26:39;20.90;99.90
5210;DHT22;2624;48.048;11.706;2023-07-16T06:31:54;20.70;99.90
5210;DHT22;2624;48.048;11.706;2023-07-16T06:36:56;20.60;99.90
5210;DHT22;2624;48.048;11.706;2023-07-16T06:41:58;20.90;99.90
5210;DHT22;2624;48.048;11.706;2023-07-16T06:47:02;21.00;99.90
5210;DHT22;2624;48.048;11.706;2023-07-16T06:52:04;21.20;99.90
5210;DHT22;2624;48.048;11.706;2023-07-16T06:57:06;21.30;99.90
5210;DHT22;2624;48.048;11.706;2023-07-16T07:02:09;21.70;99.90
5210;DHT22;2624;48.048;11.706;2023-07-16T07:07:12;21.70;99.90
5210;DHT22;2624;48.048;11.706;2023-07-16T07:12:14;22.00;99.90
5210;DHT22;2624;48.048;11.706;2023-07-16T07:17:17;22.10;99.90
5210;DHT22;2624;48.048;11.706;2023-07-16T07:22:19;21.80;99.90
5210;DHT22;2624;48.048;11.706;2023-07-16T07:27:21;22.20;99.90
5210;DHT22;2624;48.048;11.706;2023-07-16T07:32:24;22.10;99.90
5210;DHT22;2624;48.048;11.706;2023-07-16T07:37:26;22.20;99.90
5210;DHT22;2624;48.048;11.706;2023-07-16T07:42:27;22.20;99.90
5210;DHT22;2624;48.048;11.706;2023-07-16T07:47:31;22.00;99.90
5210;DHT22;2624;48.048;11.706;2023-07-16T07:52:32;22.60;99.90
5210;DHT22;2624;48.048;11.706;2023-07-16T07:57:34;22.50;99.90
5210;DHT22;2624;48.048;11.706;2023-07-16T08:02:37;22.70;99.90
5210;DHT22;2624;48.048;11.706;2023-07-16T08:07:39;22.80;99.90
5210;DHT22;2624;48.048;11.706;2023-07-16T08:12:41;22.90;99.90
5210;DHT22;2624;48.048;11.706;2023-07-16T08:17:45;23.00;99.90
5210;DHT22;2624;48.048;11.706;2023-07-16T08:22:46;23.10;99.90
5210;DHT22;2624;48.048;11.706;2023-07-16T08:27:48;23.00;99.90
5210;DHT22;2624;48.048;11.706;2023-07-16T08:32:51;22.70;99.90
5210;DHT22;2624;48.048;11.706;2023-07-16T08:37:53;22.90;99.90
5210;DHT22;2624;48.048;11.706;2023-07-16T08:42:56;23.10;99.90
5210;DHT22;2624;48.048;11.706;2023-07-16T08:48:00;23.00;99.90
5210;DHT22;2624;48.048;11.706;2023-07-16T08:53:04;23.20;99.90
5210;DHT22;2624;48.048;11.706;2023-07-16T08:58:06;23.30;99.90
5210;DHT22;2624;48.048;11.706;2023-07-16T09:03:10;23.30;99.90
5210;DHT22;2624;48.048;11.706;2023-07-16T09:08:13;23.20;99.90
5210;DHT22;2624;48.048;11.706;2023-07-16T09:13:18;23.40;99.90
5210;DHT22;2624;48.048;11.706;2023-07-16T09:18:23;23.50;99.90
5210;DHT22;2624;48.048;11.706;2023-07-16T09:23:26;23.40;99.90
5210;DHT22;2624;48.048;11.706;2023-07-16T09:28:30;23.60;99.90
5210;DHT22;2624;48.048;11.706;2023-07-16T09:33:33;23.70;99.90
5210;DHT22;2624;48.048;11.706;2023-07-16T09:38:35;24.00;99.90
5210;DHT22;2624;48.048;11.706;2023-07-16T09:43:38;24.00;99.90
5210;DHT22;2624;48.048;11.706;2023-07-16T09:48:42;24.20;99.90
5210;DHT22;2624;48.048;11.706;2023-07-16T09:53:45;24.20;99.90
5210;DHT22;2624;48.048;11.706;2023-07-16T09:58:48;24.40;99.90
5210;DHT22;2624;48.048;11.706;2023-07-16T10:03:52;24.20;99.90
5210;DHT22;2624;48.048;11.706;2023-07-16T10:08:53;24.30;99.90
5210;DHT22;2624;48.048;11.706;2023-07-16T10:13:55;24.40;99.90
5210;DHT22;2624;48.048;11.706;2023-07-16T10:18:58;24.70;99.90
5210;DHT22;2624;48.048;11.706;2023-07-16T10:24:02;24.70;99.90
5210;DHT22;2624;48.048;11.706;2023-07-16T10:29:05;24.70;99.90
5210;DHT22;2624;48.048;11.706;2023-07-16T10:34:08;25.10;99.90
5210;DHT22;2624;48.048;11.706;2023-07-16T10:39:10;25.30;99.90
5210;DHT22;2624;48.048;11.706;2023-07-16T10:44:14;25.50;99.90
5210;DHT22;2624;48.048;11.706;2023-07-16T10:49:26;25.60;99.90
5210;DHT22;2624;48.048;11.706;2023-07-16T10:54:29;25.60;99.90
5210;DHT22;2624;48.048;11.706;2023-07-16T10:59:31;25.50;99.90
5210;DHT22;2624;48.048;11.706;2023-07-16T11:04:35;25.40;99.90
5210;DHT22;2624;48.048;11.706;2023-07-16T11:09:41;25.20;99.90
5210;DHT22;2624;48.048;11.706;2023-07-16T11:14:45;25.10;99.90
5210;DHT22;2624;48.048;11.706;2023-07-16T11:19:49;25.10;99.90
5210;DHT22;2624;48.048;11.706;2023-07-16T11:24:51;25.30;99.90
5210;DHT22;2624;48.048;11.706;2023-07-16T11:29:54;25.60;99.90
5210;DHT22;2624;48.048;11.706;2023-07-16T11:34:58;25.70;99.90
5210;DHT22;2624;48.048;11.706;2023-07-16T11:40:02;25.90;99.90
5210;DHT22;2624;48.048;11.706;2023-07-16T11:45:15;25.90;99.90
5210;DHT22;2624;48.048;11.706;2023-07-16T11:50:19;25.70;99.90
5210;DHT22;2624;48.048;11.706;2023-07-16T11:55:21;25.60;99.90
5210;DHT22;2624;48.048;11.706;2023-07-16T12:00:23;25.60;99.90
5210;DHT22;2624;48.048;11.706;2023-07-16T12:05:26;25.70;99.90
5210;DHT22;2624;48.048;11.706;2023-07-16T12:10:29;25.80;99.90
5210;DHT22;2624;48.048;11.706;2023-07-16T12:15:31;25.80;99.90
5210;DHT22;2624;48.048;11.706;2023-07-16T12:20:35;25.70;99.90
5210;DHT22;2624;48.048;11.706;2023-07-16T12:25:37;25.80;99.90
5210;DHT22;2624;48.048;11.706;2023-07-16T12:30:39;25.70;99.90
5210;DHT22;2624;48.048;11.706;2023-07-16T12:35:42;25.80;99.90
5210;DHT22;2624;48.048;11.706;2023-07-16T12:40:44;25.70;99.90
5210;DHT22;2624;48.048;11.706;2023-07-16T12:45:46;25.70;99.90
5210;DHT22;2624;48.048;11.706;2023-07-16T12:50:49;25.80;99.90
5210;DHT22;2624;48.048;11.706;2023-07-16T12:55:51;25.80;99.90
5210;DHT22;2624;48.048;11.706;2023-07-16T13:00:53;26.00;99.90
5210;DHT22;2624;48.048;11.706;2023-07-16T13:05:56;26.00;99.90
5210;DHT22;2624;48.048;11.706;2023-07-16T13:10:58;25.90;99.90
5210;DHT22;2624;48.048;11.706;2023-07-16T13:16:00;26.00;99.90
5210;DHT22;2624;48.048;11.706;2023-07-16T13:21:03;26.00;99.90
5210;DHT22;2624;48.048;11.706;2023-07-16T13:26:06;26.00;99.90
5210;DHT22;2624;48.048;11.706;2023-07-16T13:31:07;26.00;99.90
5210;DHT22;2624;48.048;11.706;2023-07-16T13:36:10;26.00;99.90
5210;DHT22;2624;48.048;11.706;2023-07-16T13:41:12;26.00;99.90
5210;DHT22;2624;48.048;11.706;2023-07-16T13:46:14;26.00;99.90
5210;DHT22;2624;48.048;11.706;2023-07-16T13:51:17;26.00;99.90
5210;DHT22;2624;48.048;11.706;2023-07-16T13:56:19;26.00;99.90
5210;DHT22;2624;48.048;11.706;2023-07-16T14:01:21;26.00;99.90
5210;DHT22;2624;48.048;11.706;2023-07-16T14:06:25;26.00;99.90
5210;DHT22;2624;48.048;11.706;2023-07-16T14:11:27;26.00;99.90
5210;DHT22;2624;48.048;11.706;2023-07-16T14:16:28;26.00;99.90
5210;DHT22;2624;48.048;11.706;2023-07-16T14:21:31;26.00;99.90
5210;DHT22;2624;48.048;11.706;2023-07-16T14:26:33;26.00;99.90
5210;DHT22;2624;48.048;11.706;2023-07-16T14:31:35;25.90;99.90
5210;DHT22;2624;48.048;11.706;2023-07-16T14:36:40;25.90;99.90
5210;DHT22;2624;48.048;11.706;2023-07-16T14:41:42;25.90;99.90
5210;DHT22;2624;48.048;11.706;2023-07-16T14:46:44;25.90;99.90
5210;DHT22;2624;48.048;11.706;2023-07-16T14:51:47;25.90;99.90
5210;DHT22;2624;48.048;11.706;2023-07-16T14:56:49;25.90;99.90
5210;DHT22;2624;48.048;11.706;2023-07-16T15:01:51;25.90;99.90
5210;DHT22;2624;48.048;11.706;2023-07-16T15:06:54;25.80;99.90
5210;DHT22;2624;48.048;11.706;2023-07-16T15:11:56;25.90;99.90
5210;DHT22;2624;48.048;11.706;2023-07-16T15:16:58;25.80;99.90
5210;DHT22;2624;48.048;11.706;2023-07-16T15:22:01;25.80;99.90
5210;DHT22;2624;48.048;11.706;2023-07-16T15:27:03;25.80;99.90
5210;DHT22;2624;48.048;11.706;2023-07-16T15:32:06;25.90;99.90
5210;DHT22;2624;48.048;11.706;2023-07-16T15:37:10;25.80;99.90
5210;DHT22;2624;48.048;11.706;2023-07-16T15:42:11;25.80;99.90
5210;DHT22;2624;48.048;11.706;2023-07-16T15:47:13;25.80;99.90
5210;DHT22;2624;48.048;11.706;2023-07-16T15:52:16;25.80;99.90
5210;DHT22;2624;48.048;11.706;2023-07-16T15:57:18;25.70;99.90
5210;DHT22;2624;48.048;11.706;2023-07-16T16:02:20;25.80;99.90
5210;DHT22;2624;48.048;11.706;2023-07-16T16:07:24;25.70;99.90
5210;DHT22;2624;48.048;11.706;2023-07-16T16:12:25;25.70;99.90
5210;DHT22;2624;48.048;11.706;2023-07-16T16:17:27;25.70;99.90
5210;DHT22;2624;48.048;11.706;2023-07-16T16:22:30;25.70;99.90
5210;DHT22;2624;48.048;11.706;2023-07-16T16:27:32;25.70;99.90
5210;DHT22;2624;48.048;11.706;2023-07-16T16:32:34;25.70;99.90
5210;DHT22;2624;48.048;11.706;2023-07-16T16:37:37;25.70;99.90
5210;DHT22;2624;48.048;11.706;2023-07-16T16:42:39;25.60;99.90
5210;DHT22;2624;48.048;11.706;2023-07-16T16:47:41;25.70;99.90
5210;DHT22;2624;48.048;11.706;2023-07-16T16:52:44;25.60;99.90
5210;DHT22;2624;48.048;11.706;2023-07-16T16:57:47;25.50;99.90
5210;DHT22;2624;48.048;11.706;2023-07-16T17:02:49;25.50;99.90
5210;DHT22;2624;48.048;11.706;2023-07-16T17:07:52;25.60;99.90
5210;DHT22;2624;48.048;11.706;2023-07-16T17:12:54;25.60;99.90
5210;DHT22;2624;48.048;11.706;2023-07-16T17:17:56;25.60;99.90
5210;DHT22;2624;48.048;11.706;2023-07-16T17:22:59;25.60;99.90
5210;DHT22;2624;48.048;11.706;2023-07-16T17:28:01;25.50;99.90
5210;DHT22;2624;48.048;11.706;2023-07-16T17:33:02;25.50;99.90
5210;DHT22;2624;48.048;11.706;2023-07-16T17:38:06;25.50;99.90
5210;DHT22;2624;48.048;11.706;2023-07-16T17:43:08;25.50;99.90
5210;DHT22;2624;48.048;11.706;2023-07-16T17:48:09;25.50;99.90
5210;DHT22;2624;48.048;11.706;2023-07-16T17:53:13;25.50;99.90
5210;DHT22;2624;48.048;11.706;2023-07-16T17:58:15;25.40;99.90
5210;DHT22;2624;48.048;11.706;2023-07-16T18:03:17;25.30;99.90
5210;DHT22;2624;48.048;11.706;2023-07-16T18:08:20;25.40;99.90
5210;DHT22;2624;48.048;11.706;2023-07-16T18:13:23;25.40;99.90
5210;DHT22;2624;48.048;11.706;2023-07-16T18:18:25;25.40;99.90
5210;DHT22;2624;48.048;11.706;2023-07-16T18:23:28;25.40;99.90
5210;DHT22;2624;48.048;11.706;2023-07-16T18:28:29;25.40;99.90
5210;DHT22;2624;48.048;11.706;2023-07-16T18:33:32;25.40;99.90
5210;DHT22;2624;48.048;11.706;2023-07-16T18:38:35;25.40;99.90
5210;DHT22;2624;48.048;11.706;2023-07-16T18:43:36;25.40;99.90
5210;DHT22;2624;48.048;11.706;2023-07-16T18:48:38;25.40;99.90
5210;DHT22;2624;48.048;11.706;2023-07-16T18:53:42;25.30;99.90
5210;DHT22;2624;48.048;11.706;2023-07-16T18:58:43;25.30;99.90
5210;DHT22;2624;48.048;11.706;2023-07-16T19:03:45;25.30;99.90
5210;DHT22;2624;48.048;11.706;2023-07-16T19:08:48;25.20;99.90
5210;DHT22;2624;48.048;11.706;2023-07-16T19:13:50;25.20;99.90
5210;DHT22;2624;48.048;11.706;2023-07-16T19:18:52;24.80;99.90
5210;DHT22;2624;48.048;11.706;2023-07-16T19:23:55;24.90;99.90
5210;DHT22;2624;48.048;11.706;2023-07-16T19:28:57;24.80;99.90
5210;DHT22;2624;48.048;11.706;2023-07-16T19:33:59;24.80;99.90
5210;DHT22;2624;48.048;11.706;2023-07-16T19:39:02;24.20;99.90
5210;DHT22;2624;48.048;11.706;2023-07-16T19:44:04;23.80;99.90
5210;DHT22;2624;48.048;11.706;2023-07-16T19:49:06;23.80;99.90
5210;DHT22;2624;48.048;11.706;2023-07-16T19:54:10;24.40;99.90
5210;DHT22;2624;48.048;11.706;2023-07-16T19:59:12;24.30;99.90
5210;DHT22;2624;48.048;11.706;2023-07-16T20:04:14;24.10;99.90
5210;DHT22;2624;48.048;11.706;2023-07-16T20:09:17;24.50;99.90
5210;DHT22;2624;48.048;11.706;2023-07-16T20:14:21;24.50;99.90
5210;DHT22;2624;48.048;11.706;2023-07-16T20:19:23;24.20;99.90
5210;DHT22;2624;48.048;11.706;2023-07-16T20:24:26;23.90;99.90
5210;DHT22;2624;48.048;11.706;2023-07-16T20:29:27;24.00;99.90
5210;DHT22;2624;48.048;11.706;2023-07-16T20:34:29;23.70;99.90
5210;DHT22;2624;48.048;11.706;2023-07-16T20:39:32;23.80;99.90
5210;DHT22;2624;48.048;11.706;2023-07-16T20:44:34;23.60;99.90
5210;DHT22;2624;48.048;11.706;2023-07-16T20:49:36;23.80;99.90
5210;DHT22;2624;48.048;11.706;2023-07-16T20:54:39;23.70;99.90
5210;DHT22;2624;48.048;11.706;2023-07-16T20:59:41;23.30;99.90
5210;DHT22;2624;48.048;11.706;2023-07-16T21:04:42;23.60;99.90
5210;DHT22;2624;48.048;11.706;2023-07-16T21:09:46;24.00;99.90
5210;DHT22;2624;48.048;11.706;2023-07-16T21:14:48;23.40;99.90
5210;DHT22;2624;48.048;11.706;2023-07-16T21:19:50;23.20;99.90
5210;DHT22;2624;48.048;11.706;2023-07-16T21:24:55;23.80;99.90
5210;DHT22;2624;48.048;11.706;2023-07-16T21:29:56;23.80;99.90
5210;DHT22;2624;48.048;11.706;2023-07-16T21:34:58;23.10;99.90
5210;DHT22;2624;48.048;11.706;2023-07-16T21:40:01;23.30;99.90
5210;DHT22;2624;48.048;11.706;2023-07-16T21:45:04;23.20;99.90
5210;DHT22;2624;48.048;11.706;2023-07-16T21:50:07;23.20;99.90
5210;DHT22;2624;48.048;11.706;2023-07-16T21:55:11;23.10;99.90
5210;DHT22;2624;48.048;11.706;2023-07-16T22:00:13;23.10;99.90
5210;DHT22;2624;48.048;11.706;2023-07-16T22:05:15;23.40;99.90
5210;DHT22;2624;48.048;11.706;2023-07-16T22:10:19;22.90;99.90
5210;DHT22;2624;48.048;11.706;2023-07-16T22:15:21;22.80;99.90
5210;DHT22;2624;48.048;11.706;2023-07-16T22:20:24;22.70;99.90
5210;DHT22;2624;48.048;11.706;2023-07-16T22:25:27;22.40;99.90
5210;DHT22;2624;48.048;11.706;2023-07-16T22:30:29;22.50;99.90
5210;DHT22;2624;48.048;11.706;2023-07-16T22:35:31;23.10;99.90
5210;DHT22;2624;48.048;11.706;2023-07-16T22:40:34;23.10;99.90
5210;DHT22;2624;48.048;11.706;2023-07-16T22:45:37;22.80;99.90
5210;DHT22;2624;48.048;11.706;2023-07-16T22:50:38;22.70;99.90
5210;DHT22;2624;48.048;11.706;2023-07-16T22:55:42;22.70;99.90
5210;DHT22;2624;48.048;11.706;2023-07-16T23:00:44;22.30;99.90
5210;DHT22;2624;48.048;11.706;2023-07-16T23:05:46;22.70;99.90
5210;DHT22;2624;48.048;11.706;2023-07-16T23:10:49;22.70;99.90
5210;DHT22;2624;48.048;11.706;2023-07-16T23:15:51;22.80;99.90
5210;DHT22;2624;48.048;11.706;2023-07-16T23:20:53;22.60;99.90
5210;DHT22;2624;48.048;11.706;2023-07-16T23:25:57;22.90;99.90
5210;DHT22;2624;48.048;11.706;2023-07-16T23:30:58;22.70;99.90
5210;DHT22;2624;48.048;11.706;2023-07-16T23:36:00;22.30;99.90
5210;DHT22;2624;48.048;11.706;2023-07-16T23:41:03;22.30;99.90
5210;DHT22;2624;48.048;11.706;2023-07-16T23:46:05;22.50;99.90
5210;DHT22;2624;48.048;11.706;2023-07-16T23:51:08;22.30;99.90
5210;DHT22;2624;48.048;11.706;2023-07-16T23:56:11;22.10;99.90
